Miami, Florida
Current Conditions -  °F | °C
As of 3:53 AM on Sunday 23 Nov 2014 (Local Time) from KMIA Reporting Station
Broken Clouds Broken Clouds  
Wind Chill: 77°   Ceiling: 2900
Heat Index: 78°   Visibility: 10mi
Dew Point: 72°   Wind: 12mph
Humidity: 84%   Direction: 120°ESE
Pressure: 30.01"   Gusts: NA
Location:  25.77°N, 80.19°W
Report Text: KMIA 230853Z 12010KT 10SM FEW025 BKN029 25/22 A3001 RMK AO2 SLP163 T02500222 56013
Loading
Personal Weather Stations






























Interactive Weather Map New forecast layout! Learn more

10-Day Weather Forecast

Advertisements
Track Severe Weather on mobile